sensor_id;sensor_type;location;lat;lon;timestamp;P1;durP1;ratioP1;P2;durP2;ratioP2
10100;SDS011;5090;51.258;4.436;2023-03-14T00:01:15;5.87;;;1.07;;
10100;SDS011;5090;51.258;4.436;2023-03-14T00:03:42;6.33;;;1.00;;
10100;SDS011;5090;51.258;4.436;2023-03-14T00:06:10;5.13;;;1.40;;
10100;SDS011;5090;51.258;4.436;2023-03-14T00:08:40;6.60;;;1.00;;
10100;SDS011;5090;51.258;4.436;2023-03-14T00:11:08;5.87;;;1.30;;
10100;SDS011;5090;51.258;4.436;2023-03-14T00:13:35;9.77;;;1.77;;
10100;SDS011;5090;51.258;4.436;2023-03-14T00:16:05;10.27;;;1.60;;
10100;SDS011;5090;51.258;4.436;2023-03-14T00:18:33;5.70;;;1.10;;
10100;SDS011;5090;51.258;4.436;2023-03-14T00:21:01;4.60;;;1.00;;
10100;SDS011;5090;51.258;4.436;2023-03-14T00:23:30;7.37;;;1.10;;
10100;SDS011;5090;51.258;4.436;2023-03-14T00:26:02;6.10;;;1.17;;
10100;SDS011;5090;51.258;4.436;2023-03-14T00:28:29;3.17;;;0.70;;
10100;SDS011;5090;51.258;4.436;2023-03-14T00:30:58;3.73;;;0.90;;
10100;SDS011;5090;51.258;4.436;2023-03-14T00:33:26;5.57;;;1.00;;
10100;SDS011;5090;51.258;4.436;2023-03-14T00:35:55;6.07;;;1.23;;
10100;SDS011;5090;51.258;4.436;2023-03-14T00:38:22;5.47;;;1.20;;
10100;SDS011;5090;51.258;4.436;2023-03-14T00:40:51;4.93;;;0.80;;
10100;SDS011;5090;51.258;4.436;2023-03-14T00:43:19;5.20;;;0.93;;
10100;SDS011;5090;51.258;4.436;2023-03-14T00:45:48;5.80;;;1.07;;
10100;SDS011;5090;51.258;4.436;2023-03-14T00:48:16;4.07;;;1.00;;
10100;SDS011;5090;51.258;4.436;2023-03-14T00:50:44;3.37;;;1.10;;
10100;SDS011;5090;51.258;4.436;2023-03-14T00:53:12;4.97;;;0.93;;
10100;SDS011;5090;51.258;4.436;2023-03-14T00:55:40;8.80;;;0.90;;
10100;SDS011;5090;51.258;4.436;2023-03-14T00:58:09;4.33;;;1.97;;
10100;SDS011;5090;51.258;4.436;2023-03-14T01:00:36;3.57;;;0.90;;
10100;SDS011;5090;51.258;4.436;2023-03-14T01:03:06;7.00;;;1.27;;
10100;SDS011;5090;51.258;4.436;2023-03-14T01:05:33;2.60;;;0.93;;
10100;SDS011;5090;51.258;4.436;2023-03-14T01:08:02;6.07;;;1.10;;
10100;SDS011;5090;51.258;4.436;2023-03-14T01:10:30;5.00;;;1.10;;
10100;SDS011;5090;51.258;4.436;2023-03-14T01:12:58;4.97;;;1.17;;
10100;SDS011;5090;51.258;4.436;2023-03-14T01:15:26;8.97;;;2.03;;
10100;SDS011;5090;51.258;4.436;2023-03-14T01:17:55;6.73;;;1.13;;
10100;SDS011;5090;51.258;4.436;2023-03-14T01:20:23;4.60;;;1.10;;
10100;SDS011;5090;51.258;4.436;2023-03-14T01:22:51;8.10;;;0.97;;
10100;SDS011;5090;51.258;4.436;2023-03-14T01:25:20;5.87;;;1.47;;
10100;SDS011;5090;51.258;4.436;2023-03-14T01:27:48;5.00;;;1.33;;
10100;SDS011;5090;51.258;4.436;2023-03-14T01:30:16;4.53;;;1.37;;
10100;SDS011;5090;51.258;4.436;2023-03-14T01:32:44;7.00;;;2.20;;
10100;SDS011;5090;51.258;4.436;2023-03-14T01:35:12;6.60;;;1.60;;
10100;SDS011;5090;51.258;4.436;2023-03-14T01:37:41;8.33;;;1.27;;
10100;SDS011;5090;51.258;4.436;2023-03-14T01:40:10;7.43;;;1.57;;
10100;SDS011;5090;51.258;4.436;2023-03-14T01:42:38;9.13;;;1.73;;
10100;SDS011;5090;51.258;4.436;2023-03-14T01:45:53;4.00;;;1.23;;
10100;SDS011;5090;51.258;4.436;2023-03-14T01:47:34;12.97;;;1.83;;
10100;SDS011;5090;51.258;4.436;2023-03-14T01:50:04;6.60;;;1.50;;
10100;SDS011;5090;51.258;4.436;2023-03-14T01:52:32;7.37;;;1.70;;
10100;SDS011;5090;51.258;4.436;2023-03-14T01:55:01;6.90;;;1.20;;
10100;SDS011;5090;51.258;4.436;2023-03-14T01:57:29;8.07;;;1.60;;
10100;SDS011;5090;51.258;4.436;2023-03-14T01:59:59;7.27;;;1.57;;
10100;SDS011;5090;51.258;4.436;2023-03-14T02:02:26;8.37;;;1.77;;
10100;SDS011;5090;51.258;4.436;2023-03-14T02:04:54;6.43;;;1.77;;
10100;SDS011;5090;51.258;4.436;2023-03-14T02:07:24;8.73;;;1.60;;
10100;SDS011;5090;51.258;4.436;2023-03-14T02:09:51;6.10;;;1.53;;
10100;SDS011;5090;51.258;4.436;2023-03-14T02:12:19;8.83;;;1.73;;
10100;SDS011;5090;51.258;4.436;2023-03-14T02:14:47;8.83;;;1.67;;
10100;SDS011;5090;51.258;4.436;2023-03-14T02:17:16;8.97;;;2.30;;
10100;SDS011;5090;51.258;4.436;2023-03-14T02:22:18;3.50;;;1.17;;
10100;SDS011;5090;51.258;4.436;2023-03-14T02:27:20;6.87;;;1.50;;
10100;SDS011;5090;51.258;4.436;2023-03-14T02:29:50;7.97;;;1.27;;
10100;SDS011;5090;51.258;4.436;2023-03-14T02:32:17;6.60;;;1.67;;
10100;SDS011;5090;51.258;4.436;2023-03-14T02:34:45;7.30;;;1.20;;
10100;SDS011;5090;51.258;4.436;2023-03-14T02:37:13;6.90;;;1.40;;
10100;SDS011;5090;51.258;4.436;2023-03-14T02:39:43;8.10;;;1.40;;
10100;SDS011;5090;51.258;4.436;2023-03-14T02:42:10;7.03;;;1.40;;
10100;SDS011;5090;51.258;4.436;2023-03-14T02:47:12;8.60;;;1.40;;
10100;SDS011;5090;51.258;4.436;2023-03-14T02:49:40;3.97;;;0.83;;
10100;SDS011;5090;51.258;4.436;2023-03-14T02:52:09;6.23;;;1.00;;
10100;SDS011;5090;51.258;4.436;2023-03-14T02:54:37;7.10;;;1.23;;
10100;SDS011;5090;51.258;4.436;2023-03-14T02:57:05;7.60;;;1.20;;
10100;SDS011;5090;51.258;4.436;2023-03-14T02:59:33;7.83;;;1.47;;
10100;SDS011;5090;51.258;4.436;2023-03-14T03:02:02;6.13;;;1.23;;
10100;SDS011;5090;51.258;4.436;2023-03-14T03:04:30;5.93;;;1.07;;
10100;SDS011;5090;51.258;4.436;2023-03-14T03:06:58;4.27;;;0.90;;
10100;SDS011;5090;51.258;4.436;2023-03-14T03:09:26;4.97;;;1.27;;
10100;SDS011;5090;51.258;4.436;2023-03-14T03:11:55;3.13;;;0.90;;
10100;SDS011;5090;51.258;4.436;2023-03-14T03:14:23;4.47;;;0.97;;
10100;SDS011;5090;51.258;4.436;2023-03-14T03:16:51;5.53;;;1.50;;
10100;SDS011;5090;51.258;4.436;2023-03-14T03:19:20;5.33;;;1.27;;
10100;SDS011;5090;51.258;4.436;2023-03-14T03:21:48;5.00;;;0.73;;
10100;SDS011;5090;51.258;4.436;2023-03-14T03:24:16;4.50;;;0.83;;
10100;SDS011;5090;51.258;4.436;2023-03-14T03:26:44;6.33;;;1.17;;
10100;SDS011;5090;51.258;4.436;2023-03-14T03:29:12;5.47;;;1.50;;
10100;SDS011;5090;51.258;4.436;2023-03-14T03:31:41;5.23;;;1.30;;
10100;SDS011;5090;51.258;4.436;2023-03-14T03:34:09;2.40;;;0.60;;
10100;SDS011;5090;51.258;4.436;2023-03-14T03:36:37;2.93;;;0.80;;
10100;SDS011;5090;51.258;4.436;2023-03-14T03:39:05;4.77;;;1.03;;
10100;SDS011;5090;51.258;4.436;2023-03-14T03:41:33;5.23;;;1.20;;
10100;SDS011;5090;51.258;4.436;2023-03-14T03:44:02;5.73;;;1.30;;
10100;SDS011;5090;51.258;4.436;2023-03-14T03:46:30;3.47;;;1.20;;
10100;SDS011;5090;51.258;4.436;2023-03-14T03:48:58;5.40;;;1.50;;
10100;SDS011;5090;51.258;4.436;2023-03-14T03:51:26;5.03;;;1.40;;
10100;SDS011;5090;51.258;4.436;2023-03-14T03:53:55;6.43;;;2.17;;
10100;SDS011;5090;51.258;4.436;2023-03-14T03:56:23;5.13;;;1.67;;
10100;SDS011;5090;51.258;4.436;2023-03-14T03:58:51;5.17;;;1.37;;
10100;SDS011;5090;51.258;4.436;2023-03-14T04:01:19;7.17;;;1.33;;
10100;SDS011;5090;51.258;4.436;2023-03-14T04:03:47;4.13;;;1.40;;
10100;SDS011;5090;51.258;4.436;2023-03-14T04:06:15;5.30;;;1.70;;
10100;SDS011;5090;51.258;4.436;2023-03-14T04:08:44;6.30;;;1.60;;
10100;SDS011;5090;51.258;4.436;2023-03-14T04:11:12;14.17;;;2.43;;
10100;SDS011;5090;51.258;4.436;2023-03-14T04:13:40;4.57;;;1.67;;
10100;SDS011;5090;51.258;4.436;2023-03-14T04:16:11;6.30;;;2.00;;
10100;SDS011;5090;51.258;4.436;2023-03-14T04:18:37;5.10;;;1.50;;
10100;SDS011;5090;51.258;4.436;2023-03-14T04:21:05;9.50;;;1.90;;
10100;SDS011;5090;51.258;4.436;2023-03-14T04:23:34;7.37;;;1.70;;
10100;SDS011;5090;51.258;4.436;2023-03-14T04:26:03;6.37;;;1.67;;
10100;SDS011;5090;51.258;4.436;2023-03-14T04:28:31;7.53;;;2.20;;
10100;SDS011;5090;51.258;4.436;2023-03-14T04:30:59;9.67;;;2.87;;
10100;SDS011;5090;51.258;4.436;2023-03-14T04:33:27;7.97;;;2.13;;
10100;SDS011;5090;51.258;4.436;2023-03-14T04:35:55;6.93;;;2.27;;
10100;SDS011;5090;51.258;4.436;2023-03-14T04:38:24;8.50;;;2.43;;
10100;SDS011;5090;51.258;4.436;2023-03-14T04:40:52;6.23;;;2.70;;
10100;SDS011;5090;51.258;4.436;2023-03-14T04:43:20;7.63;;;1.97;;
10100;SDS011;5090;51.258;4.436;2023-03-14T04:45:48;10.73;;;2.00;;
10100;SDS011;5090;51.258;4.436;2023-03-14T04:48:17;7.20;;;2.43;;
10100;SDS011;5090;51.258;4.436;2023-03-14T04:50:45;7.00;;;2.50;;
10100;SDS011;5090;51.258;4.436;2023-03-14T04:53:13;6.83;;;2.50;;
10100;SDS011;5090;51.258;4.436;2023-03-14T04:55:41;5.47;;;2.40;;
10100;SDS011;5090;51.258;4.436;2023-03-14T04:58:09;5.83;;;2.40;;
10100;SDS011;5090;51.258;4.436;2023-03-14T05:00:42;7.60;;;2.30;;
10100;SDS011;5090;51.258;4.436;2023-03-14T05:03:10;9.37;;;2.60;;
10100;SDS011;5090;51.258;4.436;2023-03-14T05:05:38;9.03;;;2.70;;
10100;SDS011;5090;51.258;4.436;2023-03-14T05:08:06;7.00;;;2.90;;
10100;SDS011;5090;51.258;4.436;2023-03-14T05:10:34;8.80;;;3.13;;
10100;SDS011;5090;51.258;4.436;2023-03-14T05:13:03;6.07;;;3.00;;
10100;SDS011;5090;51.258;4.436;2023-03-14T05:15:31;5.50;;;3.10;;
10100;SDS011;5090;51.258;4.436;2023-03-14T05:17:59;7.93;;;3.50;;
10100;SDS011;5090;51.258;4.436;2023-03-14T05:20:28;9.67;;;3.67;;
10100;SDS011;5090;51.258;4.436;2023-03-14T05:22:57;6.87;;;3.27;;
10100;SDS011;5090;51.258;4.436;2023-03-14T05:25:25;6.97;;;3.30;;
10100;SDS011;5090;51.258;4.436;2023-03-14T05:27:54;7.83;;;3.23;;
10100;SDS011;5090;51.258;4.436;2023-03-14T05:30:22;7.50;;;3.57;;
10100;SDS011;5090;51.258;4.436;2023-03-14T05:32:50;7.70;;;3.73;;
10100;SDS011;5090;51.258;4.436;2023-03-14T05:35:18;11.67;;;3.70;;
10100;SDS011;5090;51.258;4.436;2023-03-14T05:37:46;9.10;;;3.60;;
10100;SDS011;5090;51.258;4.436;2023-03-14T05:40:15;8.90;;;3.67;;
10100;SDS011;5090;51.258;4.436;2023-03-14T05:42:43;8.20;;;3.50;;
10100;SDS011;5090;51.258;4.436;2023-03-14T05:45:11;8.23;;;3.30;;
10100;SDS011;5090;51.258;4.436;2023-03-14T05:47:39;9.87;;;3.93;;
10100;SDS011;5090;51.258;4.436;2023-03-14T05:50:08;9.40;;;3.23;;
10100;SDS011;5090;51.258;4.436;2023-03-14T05:52:36;6.43;;;3.67;;
10100;SDS011;5090;51.258;4.436;2023-03-14T05:55:04;7.13;;;3.10;;
10100;SDS011;5090;51.258;4.436;2023-03-14T05:57:33;6.80;;;2.97;;
10100;SDS011;5090;51.258;4.436;2023-03-14T06:00:01;7.80;;;2.67;;
10100;SDS011;5090;51.258;4.436;2023-03-14T06:02:29;6.97;;;2.37;;
10100;SDS011;5090;51.258;4.436;2023-03-14T06:04:57;7.53;;;2.83;;
10100;SDS011;5090;51.258;4.436;2023-03-14T06:07:25;5.20;;;2.50;;
10100;SDS011;5090;51.258;4.436;2023-03-14T06:09:54;7.70;;;2.60;;
10100;SDS011;5090;51.258;4.436;2023-03-14T06:12:22;8.77;;;2.77;;
10100;SDS011;5090;51.258;4.436;2023-03-14T06:14:51;4.97;;;2.93;;
10100;SDS011;5090;51.258;4.436;2023-03-14T06:17:19;3.80;;;2.50;;
10100;SDS011;5090;51.258;4.436;2023-03-14T06:19:47;11.20;;;3.23;;
10100;SDS011;5090;51.258;4.436;2023-03-14T06:22:16;6.37;;;3.00;;
10100;SDS011;5090;51.258;4.436;2023-03-14T06:24:44;5.87;;;2.90;;
10100;SDS011;5090;51.258;4.436;2023-03-14T06:27:12;5.40;;;2.30;;
10100;SDS011;5090;51.258;4.436;2023-03-14T06:29:40;7.97;;;1.60;;
10100;SDS011;5090;51.258;4.436;2023-03-14T06:32:09;6.43;;;1.63;;
10100;SDS011;5090;51.258;4.436;2023-03-14T06:34:37;4.23;;;1.10;;
10100;SDS011;5090;51.258;4.436;2023-03-14T06:37:05;3.93;;;1.50;;
10100;SDS011;5090;51.258;4.436;2023-03-14T06:39:33;7.73;;;1.50;;
10100;SDS011;5090;51.258;4.436;2023-03-14T06:42:01;4.40;;;1.23;;
10100;SDS011;5090;51.258;4.436;2023-03-14T06:44:30;5.23;;;1.40;;
10100;SDS011;5090;51.258;4.436;2023-03-14T06:46:58;3.23;;;1.27;;
10100;SDS011;5090;51.258;4.436;2023-03-14T06:49:26;4.97;;;1.37;;
10100;SDS011;5090;51.258;4.436;2023-03-14T06:51:54;3.27;;;1.30;;
10100;SDS011;5090;51.258;4.436;2023-03-14T06:54:23;5.03;;;1.60;;
10100;SDS011;5090;51.258;4.436;2023-03-14T06:56:51;4.13;;;1.13;;
10100;SDS011;5090;51.258;4.436;2023-03-14T06:59:19;2.77;;;0.90;;
10100;SDS011;5090;51.258;4.436;2023-03-14T07:01:47;4.00;;;0.87;;
10100;SDS011;5090;51.258;4.436;2023-03-14T07:04:16;3.07;;;0.73;;
10100;SDS011;5090;51.258;4.436;2023-03-14T07:06:44;4.20;;;1.10;;
10100;SDS011;5090;51.258;4.436;2023-03-14T07:09:12;5.37;;;0.90;;
10100;SDS011;5090;51.258;4.436;2023-03-14T07:11:40;4.87;;;1.07;;
10100;SDS011;5090;51.258;4.436;2023-03-14T07:14:08;7.27;;;1.03;;
10100;SDS011;5090;51.258;4.436;2023-03-14T07:16:37;5.30;;;1.20;;
10100;SDS011;5090;51.258;4.436;2023-03-14T07:19:05;4.93;;;1.00;;
10100;SDS011;5090;51.258;4.436;2023-03-14T07:21:33;9.47;;;1.07;;
10100;SDS011;5090;51.258;4.436;2023-03-14T07:24:01;4.80;;;1.00;;
10100;SDS011;5090;51.258;4.436;2023-03-14T07:26:29;6.10;;;1.20;;
10100;SDS011;5090;51.258;4.436;2023-03-14T07:28:58;5.43;;;1.50;;
10100;SDS011;5090;51.258;4.436;2023-03-14T07:31:26;10.40;;;1.40;;
10100;SDS011;5090;51.258;4.436;2023-03-14T07:33:54;7.60;;;1.37;;
10100;SDS011;5090;51.258;4.436;2023-03-14T07:36:23;6.63;;;1.13;;
10100;SDS011;5090;51.258;4.436;2023-03-14T07:38:51;9.23;;;1.27;;
10100;SDS011;5090;51.258;4.436;2023-03-14T07:41:19;7.13;;;1.33;;
10100;SDS011;5090;51.258;4.436;2023-03-14T07:43:47;6.47;;;1.30;;
10100;SDS011;5090;51.258;4.436;2023-03-14T07:46:16;7.30;;;1.27;;
10100;SDS011;5090;51.258;4.436;2023-03-14T07:48:44;6.23;;;1.17;;
10100;SDS011;5090;51.258;4.436;2023-03-14T07:51:12;7.43;;;1.50;;
10100;SDS011;5090;51.258;4.436;2023-03-14T07:53:40;4.83;;;1.10;;
10100;SDS011;5090;51.258;4.436;2023-03-14T07:56:08;7.37;;;1.40;;
10100;SDS011;5090;51.258;4.436;2023-03-14T07:58:37;5.50;;;1.70;;
10100;SDS011;5090;51.258;4.436;2023-03-14T08:01:05;4.87;;;1.47;;
10100;SDS011;5090;51.258;4.436;2023-03-14T08:03:33;3.83;;;1.20;;
10100;SDS011;5090;51.258;4.436;2023-03-14T08:06:01;5.83;;;1.67;;
10100;SDS011;5090;51.258;4.436;2023-03-14T08:08:29;6.13;;;1.37;;
10100;SDS011;5090;51.258;4.436;2023-03-14T08:11:02;6.80;;;1.40;;
10100;SDS011;5090;51.258;4.436;2023-03-14T08:13:30;3.37;;;0.87;;
10100;SDS011;5090;51.258;4.436;2023-03-14T08:15:58;3.40;;;0.80;;
10100;SDS011;5090;51.258;4.436;2023-03-14T08:18:26;5.37;;;1.13;;
10100;SDS011;5090;51.258;4.436;2023-03-14T08:20:54;2.90;;;0.90;;
10100;SDS011;5090;51.258;4.436;2023-03-14T08:23:23;5.10;;;0.90;;
10100;SDS011;5090;51.258;4.436;2023-03-14T08:25:51;5.77;;;1.23;;
10100;SDS011;5090;51.258;4.436;2023-03-14T08:28:19;4.83;;;1.40;;
10100;SDS011;5090;51.258;4.436;2023-03-14T08:30:47;6.40;;;1.20;;
10100;SDS011;5090;51.258;4.436;2023-03-14T08:33:16;4.43;;;0.93;;
10100;SDS011;5090;51.258;4.436;2023-03-14T08:35:44;3.87;;;0.80;;
10100;SDS011;5090;51.258;4.436;2023-03-14T08:38:12;4.80;;;0.77;;
10100;SDS011;5090;51.258;4.436;2023-03-14T08:40:40;4.60;;;0.70;;
10100;SDS011;5090;51.258;4.436;2023-03-14T08:43:08;4.30;;;1.03;;
10100;SDS011;5090;51.258;4.436;2023-03-14T08:45:37;3.10;;;1.03;;
10100;SDS011;5090;51.258;4.436;2023-03-14T08:48:05;4.23;;;0.80;;
10100;SDS011;5090;51.258;4.436;2023-03-14T08:50:33;2.63;;;0.70;;
10100;SDS011;5090;51.258;4.436;2023-03-14T08:53:01;1.70;;;0.70;;
10100;SDS011;5090;51.258;4.436;2023-03-14T08:55:29;2.50;;;0.70;;
10100;SDS011;5090;51.258;4.436;2023-03-14T08:57:58;3.13;;;0.70;;
10100;SDS011;5090;51.258;4.436;2023-03-14T09:00:26;5.43;;;1.20;;
10100;SDS011;5090;51.258;4.436;2023-03-14T09:02:54;3.80;;;0.60;;
10100;SDS011;5090;51.258;4.436;2023-03-14T09:05:22;5.03;;;1.00;;
10100;SDS011;5090;51.258;4.436;2023-03-14T09:07:50;6.97;;;1.07;;
10100;SDS011;5090;51.258;4.436;2023-03-14T09:10:19;3.80;;;0.90;;
10100;SDS011;5090;51.258;4.436;2023-03-14T09:12:47;5.20;;;1.20;;
10100;SDS011;5090;51.258;4.436;2023-03-14T09:15:15;6.47;;;1.20;;
10100;SDS011;5090;51.258;4.436;2023-03-14T09:17:43;2.93;;;1.17;;
10100;SDS011;5090;51.258;4.436;2023-03-14T09:20:12;5.70;;;0.87;;
10100;SDS011;5090;51.258;4.436;2023-03-14T09:22:40;5.73;;;1.07;;
10100;SDS011;5090;51.258;4.436;2023-03-14T09:25:08;6.53;;;1.23;;
10100;SDS011;5090;51.258;4.436;2023-03-14T09:27:37;6.77;;;1.27;;
10100;SDS011;5090;51.258;4.436;2023-03-14T09:30:05;5.00;;;0.83;;
10100;SDS011;5090;51.258;4.436;2023-03-14T09:32:34;4.57;;;1.03;;
10100;SDS011;5090;51.258;4.436;2023-03-14T09:35:02;6.50;;;1.50;;
10100;SDS011;5090;51.258;4.436;2023-03-14T09:37:30;3.50;;;1.20;;
10100;SDS011;5090;51.258;4.436;2023-03-14T09:39:58;8.00;;;1.30;;
10100;SDS011;5090;51.258;4.436;2023-03-14T09:42:26;6.83;;;1.10;;
10100;SDS011;5090;51.258;4.436;2023-03-14T09:44:57;3.07;;;0.90;;
10100;SDS011;5090;51.258;4.436;2023-03-14T09:47:25;4.10;;;1.10;;
10100;SDS011;5090;51.258;4.436;2023-03-14T09:49:53;2.73;;;1.23;;
10100;SDS011;5090;51.258;4.436;2023-03-14T09:52:26;5.87;;;1.67;;
10100;SDS011;5090;51.258;4.436;2023-03-14T09:54:54;6.93;;;1.53;;
10100;SDS011;5090;51.258;4.436;2023-03-14T09:57:23;7.63;;;2.00;;
10100;SDS011;5090;51.258;4.436;2023-03-14T09:59:50;5.67;;;1.60;;
10100;SDS011;5090;51.258;4.436;2023-03-14T10:02:19;5.07;;;1.50;;
10100;SDS011;5090;51.258;4.436;2023-03-14T10:04:47;3.67;;;1.00;;
10100;SDS011;5090;51.258;4.436;2023-03-14T10:07:19;5.37;;;1.40;;
10100;SDS011;5090;51.258;4.436;2023-03-14T10:09:49;4.37;;;1.67;;
10100;SDS011;5090;51.258;4.436;2023-03-14T10:12:17;3.37;;;1.20;;
10100;SDS011;5090;51.258;4.436;2023-03-14T10:14:46;2.03;;;0.80;;
10100;SDS011;5090;51.258;4.436;2023-03-14T10:17:13;3.00;;;1.07;;
10100;SDS011;5090;51.258;4.436;2023-03-14T10:22:15;4.87;;;1.33;;
10100;SDS011;5090;51.258;4.436;2023-03-14T10:24:47;5.10;;;1.33;;
10100;SDS011;5090;51.258;4.436;2023-03-14T10:27:19;7.27;;;1.30;;
10100;SDS011;5090;51.258;4.436;2023-03-14T10:32:21;4.33;;;1.10;;
10100;SDS011;5090;51.258;4.436;2023-03-14T10:37:24;6.43;;;1.30;;
10100;SDS011;5090;51.258;4.436;2023-03-14T10:39:52;3.87;;;1.00;;
10100;SDS011;5090;51.258;4.436;2023-03-14T10:42:27;6.60;;;2.57;;
10100;SDS011;5090;51.258;4.436;2023-03-14T10:45:02;5.97;;;1.50;;
10100;SDS011;5090;51.258;4.436;2023-03-14T10:47:28;9.30;;;1.17;;
10100;SDS011;5090;51.258;4.436;2023-03-14T10:49:57;5.93;;;1.07;;
10100;SDS011;5090;51.258;4.436;2023-03-14T10:52:27;6.57;;;1.23;;
10100;SDS011;5090;51.258;4.436;2023-03-14T10:54:58;9.13;;;1.53;;
10100;SDS011;5090;51.258;4.436;2023-03-14T10:57:25;8.50;;;1.63;;
10100;SDS011;5090;51.258;4.436;2023-03-14T10:59:53;2.77;;;1.03;;
10100;SDS011;5090;51.258;4.436;2023-03-14T11:05:04;6.77;;;0.90;;
10100;SDS011;5090;51.258;4.436;2023-03-14T11:07:36;5.17;;;1.37;;
10100;SDS011;5090;51.258;4.436;2023-03-14T11:12:41;7.53;;;0.97;;
10100;SDS011;5090;51.258;4.436;2023-03-14T11:15:27;6.63;;;1.60;;
10100;SDS011;5090;51.258;4.436;2023-03-14T11:18:07;9.53;;;1.70;;
10100;SDS011;5090;51.258;4.436;2023-03-14T11:20:41;8.43;;;1.73;;
10100;SDS011;5090;51.258;4.436;2023-03-14T11:23:13;6.93;;;1.43;;
10100;SDS011;5090;51.258;4.436;2023-03-14T11:25:49;3.97;;;1.20;;
10100;SDS011;5090;51.258;4.436;2023-03-14T11:28:19;7.13;;;1.30;;
10100;SDS011;5090;51.258;4.436;2023-03-14T11:30:51;9.97;;;1.30;;
10100;SDS011;5090;51.258;4.436;2023-03-14T11:33:22;7.83;;;1.40;;
10100;SDS011;5090;51.258;4.436;2023-03-14T11:35:53;15.80;;;2.40;;
10100;SDS011;5090;51.258;4.436;2023-03-14T11:38:24;8.73;;;1.80;;
10100;SDS011;5090;51.258;4.436;2023-03-14T11:40:48;11.57;;;2.53;;
10100;SDS011;5090;51.258;4.436;2023-03-14T11:43:48;19.80;;;2.40;;
10100;SDS011;5090;51.258;4.436;2023-03-14T11:46:01;18.23;;;2.30;;
10100;SDS011;5090;51.258;4.436;2023-03-14T11:49:00;17.17;;;3.27;;
10100;SDS011;5090;51.258;4.436;2023-03-14T11:51:13;11.23;;;2.10;;
10100;SDS011;5090;51.258;4.436;2023-03-14T11:54:47;13.80;;;2.27;;
10100;SDS011;5090;51.258;4.436;2023-03-14T11:56:27;8.97;;;2.23;;
10100;SDS011;5090;51.258;4.436;2023-03-14T11:58:55;13.00;;;2.27;;
10100;SDS011;5090;51.258;4.436;2023-03-14T12:01:22;13.60;;;2.77;;
10100;SDS011;5090;51.258;4.436;2023-03-14T12:03:54;13.37;;;3.00;;
10100;SDS011;5090;51.258;4.436;2023-03-14T12:06:23;9.87;;;2.20;;
10100;SDS011;5090;51.258;4.436;2023-03-14T12:08:52;16.40;;;3.83;;
10100;SDS011;5090;51.258;4.436;2023-03-14T12:11:25;17.90;;;2.87;;
10100;SDS011;5090;51.258;4.436;2023-03-14T12:13:50;15.50;;;2.80;;
10100;SDS011;5090;51.258;4.436;2023-03-14T12:16:29;15.20;;;2.20;;
10100;SDS011;5090;51.258;4.436;2023-03-14T12:18:54;14.83;;;2.77;;
10100;SDS011;5090;51.258;4.436;2023-03-14T12:21:22;17.53;;;3.07;;
10100;SDS011;5090;51.258;4.436;2023-03-14T12:23:52;15.80;;;3.13;;
10100;SDS011;5090;51.258;4.436;2023-03-14T12:26:23;13.80;;;2.87;;
10100;SDS011;5090;51.258;4.436;2023-03-14T12:28:51;19.63;;;3.20;;
10100;SDS011;5090;51.258;4.436;2023-03-14T12:34:01;14.80;;;2.87;;
10100;SDS011;5090;51.258;4.436;2023-03-14T12:36:44;20.53;;;2.73;;
10100;SDS011;5090;51.258;4.436;2023-03-14T12:38:55;18.97;;;2.77;;
10100;SDS011;5090;51.258;4.436;2023-03-14T12:41:29;14.50;;;3.07;;
10100;SDS011;5090;51.258;4.436;2023-03-14T12:44:13;14.73;;;3.07;;
10100;SDS011;5090;51.258;4.436;2023-03-14T12:46:27;19.00;;;3.13;;
10100;SDS011;5090;51.258;4.436;2023-03-14T12:49:03;15.37;;;2.47;;
10100;SDS011;5090;51.258;4.436;2023-03-14T12:51:30;16.03;;;2.73;;
10100;SDS011;5090;51.258;4.436;2023-03-14T12:56:41;9.33;;;2.33;;
10100;SDS011;5090;51.258;4.436;2023-03-14T12:59:16;17.53;;;2.70;;
10100;SDS011;5090;51.258;4.436;2023-03-14T13:01:45;16.03;;;2.30;;
10100;SDS011;5090;51.258;4.436;2023-03-14T13:04:11;13.43;;;3.03;;
10100;SDS011;5090;51.258;4.436;2023-03-14T13:06:46;11.50;;;2.90;;
10100;SDS011;5090;51.258;4.436;2023-03-14T13:11:47;10.70;;;2.00;;
10100;SDS011;5090;51.258;4.436;2023-03-14T13:14:15;13.47;;;2.00;;
10100;SDS011;5090;51.258;4.436;2023-03-14T13:16:44;11.37;;;1.60;;
10100;SDS011;5090;51.258;4.436;2023-03-14T13:19:18;4.97;;;0.93;;
10100;SDS011;5090;51.258;4.436;2023-03-14T13:21:45;5.80;;;1.13;;
10100;SDS011;5090;51.258;4.436;2023-03-14T13:24:20;6.73;;;1.23;;
10100;SDS011;5090;51.258;4.436;2023-03-14T13:26:45;7.07;;;1.57;;
10100;SDS011;5090;51.258;4.436;2023-03-14T13:29:15;7.47;;;1.50;;
10100;SDS011;5090;51.258;4.436;2023-03-14T13:31:44;8.20;;;1.80;;
10100;SDS011;5090;51.258;4.436;2023-03-14T13:34:12;8.30;;;1.53;;
10100;SDS011;5090;51.258;4.436;2023-03-14T13:36:40;4.80;;;1.00;;
10100;SDS011;5090;51.258;4.436;2023-03-14T13:39:10;8.00;;;1.43;;
10100;SDS011;5090;51.258;4.436;2023-03-14T13:41:38;6.97;;;1.40;;
10100;SDS011;5090;51.258;4.436;2023-03-14T13:44:07;11.27;;;1.40;;
10100;SDS011;5090;51.258;4.436;2023-03-14T13:46:35;9.57;;;1.50;;
10100;SDS011;5090;51.258;4.436;2023-03-14T13:49:04;9.13;;;1.83;;
10100;SDS011;5090;51.258;4.436;2023-03-14T13:51:31;7.00;;;1.97;;
10100;SDS011;5090;51.258;4.436;2023-03-14T13:54:01;9.50;;;1.40;;
10100;SDS011;5090;51.258;4.436;2023-03-14T13:56:31;6.17;;;1.30;;
10100;SDS011;5090;51.258;4.436;2023-03-14T13:58:58;9.73;;;1.37;;
10100;SDS011;5090;51.258;4.436;2023-03-14T14:01:28;7.33;;;1.30;;
10100;SDS011;5090;51.258;4.436;2023-03-14T14:03:57;1.43;;;0.30;;
10100;SDS011;5090;51.258;4.436;2023-03-14T14:06:27;4.03;;;0.50;;
10100;SDS011;5090;51.258;4.436;2023-03-14T14:08:54;2.80;;;0.67;;
10100;SDS011;5090;51.258;4.436;2023-03-14T14:11:29;1.83;;;0.80;;
10100;SDS011;5090;51.258;4.436;2023-03-14T14:13:53;9.13;;;1.23;;
10100;SDS011;5090;51.258;4.436;2023-03-14T14:16:21;8.90;;;1.20;;
10100;SDS011;5090;51.258;4.436;2023-03-14T14:18:50;7.47;;;1.07;;
10100;SDS011;5090;51.258;4.436;2023-03-14T14:21:17;2.23;;;0.90;;
10100;SDS011;5090;51.258;4.436;2023-03-14T14:23:46;8.70;;;1.37;;
10100;SDS011;5090;51.258;4.436;2023-03-14T14:26:16;6.80;;;1.20;;
10100;SDS011;5090;51.258;4.436;2023-03-14T14:28:42;3.23;;;1.17;;
10100;SDS011;5090;51.258;4.436;2023-03-14T14:31:18;4.30;;;1.10;;
10100;SDS011;5090;51.258;4.436;2023-03-14T14:33:45;3.97;;;1.20;;
10100;SDS011;5090;51.258;4.436;2023-03-14T14:36:17;3.23;;;0.70;;
10100;SDS011;5090;51.258;4.436;2023-03-14T14:38:48;8.77;;;1.63;;
10100;SDS011;5090;51.258;4.436;2023-03-14T14:41:16;4.07;;;0.80;;
10100;SDS011;5090;51.258;4.436;2023-03-14T14:43:44;4.70;;;0.90;;
10100;SDS011;5090;51.258;4.436;2023-03-14T14:46:15;6.03;;;1.17;;
10100;SDS011;5090;51.258;4.436;2023-03-14T14:48:41;11.67;;;1.27;;
10100;SDS011;5090;51.258;4.436;2023-03-14T14:51:09;7.07;;;1.13;;
10100;SDS011;5090;51.258;4.436;2023-03-14T14:53:40;8.97;;;1.67;;
10100;SDS011;5090;51.258;4.436;2023-03-14T14:56:13;7.03;;;1.40;;
10100;SDS011;5090;51.258;4.436;2023-03-14T14:58:36;9.80;;;1.63;;
10100;SDS011;5090;51.258;4.436;2023-03-14T15:01:07;3.60;;;1.73;;
10100;SDS011;5090;51.258;4.436;2023-03-14T15:03:34;5.40;;;1.00;;
10100;SDS011;5090;51.258;4.436;2023-03-14T15:06:02;7.47;;;1.70;;
10100;SDS011;5090;51.258;4.436;2023-03-14T15:08:32;3.73;;;1.37;;
10100;SDS011;5090;51.258;4.436;2023-03-14T15:11:00;5.00;;;1.23;;
10100;SDS011;5090;51.258;4.436;2023-03-14T15:13:29;7.93;;;1.27;;
10100;SDS011;5090;51.258;4.436;2023-03-14T15:15:57;9.03;;;1.27;;
10100;SDS011;5090;51.258;4.436;2023-03-14T15:18:27;11.50;;;1.43;;
10100;SDS011;5090;51.258;4.436;2023-03-14T15:20:53;3.77;;;0.97;;
10100;SDS011;5090;51.258;4.436;2023-03-14T15:23:21;6.20;;;1.30;;
10100;SDS011;5090;51.258;4.436;2023-03-14T15:25:50;6.47;;;1.37;;
10100;SDS011;5090;51.258;4.436;2023-03-14T15:28:19;5.43;;;1.10;;
10100;SDS011;5090;51.258;4.436;2023-03-14T15:30:48;9.17;;;1.50;;
10100;SDS011;5090;51.258;4.436;2023-03-14T15:33:15;13.13;;;1.53;;
10100;SDS011;5090;51.258;4.436;2023-03-14T15:35:44;5.00;;;0.90;;
10100;SDS011;5090;51.258;4.436;2023-03-14T15:38:12;8.73;;;1.33;;